»·PEaware :: N5002T KBFL-KMHV

N5002T :: KBFL-KMHV

FLIGHT INFORMATION

Flight Status: Arrived
Operator: Privately registered:
United States
More flights under this callsign
Pilot: Hunter M. (19355)
Aircraft: CESSNA 172 SKYHAWK
(C172)
More flights by this aircraft type
Origin: KBFL Meadows
United States
Destination: KMHV Mojave
United States
More flights between these airports :: More routes between these airports
Route: DIRECT
File this flight plan on PilotEdge
Remarks: Cat 6
Altitude:
(Current/Filed)
7,500ft
Speed:
(Current/Filed)
118kts
Departed: 28-Nov-18 04:58 PM
Arrived: 28-Nov-18 05:36 PM
Distance/Time
Traveled:
50nm/0:38
Distance/Time
To Go:
Arrived

Flight Plot

Page will automatically refresh every two minutes.


Map Options




Map Legend


Flown Route
Filed Route
Departure Airport
Arrival Airport
Navaid (VOR, NDB)
Fix

Horizontal Profiles

Position Reports

Time Latitude Longitude Heading Altitude Ground
Speed
28-Nov-18 16:53 35.432875 -119.045334 137 510ft 0kts
28-Nov-18 16:54 35.432875 -119.045334 137 510ft 0kts
28-Nov-18 16:55 35.432875 -119.045334 137 510ft 0kts
28-Nov-18 16:56 35.432233 -119.045528 210 510ft 10kts
28-Nov-18 16:57 35.429779 -119.047518 212 510ft 6kts
28-Nov-18 16:58 35.427898 -119.046644 132 510ft 10kts
28-Nov-18 16:59 35.426177 -119.045383 227 510ft 7kts
28-Nov-18 17:00 35.426095 -119.045494 229 510ft 0kts
28-Nov-18 17:01 35.429395 -119.050842 312 581ft 69kts
28-Nov-18 17:02 35.447395 -119.070399 295 1333ft 92kts
28-Nov-18 17:03 35.434486 -119.080799 118 2093ft 95kts
28-Nov-18 17:04 35.427166 -119.049545 104 2802ft 98kts
28-Nov-18 17:05 35.419431 -119.017839 111 3494ft 96kts
28-Nov-18 17:06 35.408293 -118.988059 115 4177ft 95kts
28-Nov-18 17:07 35.396642 -118.959223 115 4861ft 93kts
28-Nov-18 17:08 35.385044 -118.931056 116 5540ft 91kts
28-Nov-18 17:09 35.373838 -118.903906 115 6198ft 88kts
28-Nov-18 17:10 35.362682 -118.875885 114 6733ft 94kts
28-Nov-18 17:11 35.350642 -118.846730 114 7241ft 96kts
28-Nov-18 17:12 35.337786 -118.815902 116 7503ft 114kts
28-Nov-18 17:13 35.322208 -118.779101 116 7433ft 124kts
28-Nov-18 17:14 35.306516 -118.741560 116 7436ft 123kts
28-Nov-18 17:15 35.291574 -118.705546 114 7499ft 114kts
28-Nov-18 17:16 35.276021 -118.668023 115 7477ft 113kts
28-Nov-18 17:17 35.262197 -118.634665 115 7516ft 114kts
28-Nov-18 17:18 35.247523 -118.599115 115 7503ft 118kts
28-Nov-18 17:19 35.232551 -118.563273 115 7491ft 118kts
28-Nov-18 17:20 35.217754 -118.527935 115 7486ft 115kts
28-Nov-18 17:21 35.203213 -118.493244 115 7486ft 114kts
28-Nov-18 17:22 35.188720 -118.458718 115 7488ft 114kts
28-Nov-18 17:23 35.174192 -118.424145 115 7489ft 114kts
28-Nov-18 17:24 35.159666 -118.389611 115 7490ft 114kts
28-Nov-18 17:25 35.145084 -118.354988 115 7483ft 114kts
28-Nov-18 17:26 35.130560 -118.320531 115 7483ft 113kts
28-Nov-18 17:27 35.116015 -118.286051 115 7417ft 119kts
28-Nov-18 17:28 35.100901 -118.250367 116 6833ft 105kts
28-Nov-18 17:29 35.088646 -118.221393 116 6078ft 90kts
28-Nov-18 17:30 35.081727 -118.193558 82 5292ft 88kts
28-Nov-18 17:31 35.081553 -118.165114 97 4547ft 81kts
28-Nov-18 17:32 35.080438 -118.137638 88 3811ft 76kts
28-Nov-18 17:33 35.079840 -118.110396 88 3785ft 82kts
28-Nov-18 17:34 35.079376 -118.082584 87 3779ft 82kts
28-Nov-18 17:35 35.061670 -118.077334 248 3586ft 90kts
28-Nov-18 17:36 35.058847 -118.102719 278 3392ft 68kts
28-Nov-18 17:37 35.059189 -118.124965 268 3133ft 61kts
28-Nov-18 17:38 35.059205 -118.144327 264 2794ft 44kts
28-Nov-18 17:39 35.059036 -118.150495 150 2794ft 7kts
28-Nov-18 17:40 35.057990 -118.149311 168 2794ft 8kts
28-Nov-18 17:41 35.057420 -118.151738 279 2794ft 10kts
28-Nov-18 17:42 35.056944 -118.152529 267 2794ft 3kts
28-Nov-18 17:43 35.056941 -118.152742 270 2794ft 0kts
28-Nov-18 17:44 35.056941 -118.152743 270 2794ft 0kts

Navigation Log

Ident Type
Flight plan parsing failed, navigation log unavailable